createdAt,value
2019-01-06T00:00:44.916Z,1019.84
2019-01-06T00:01:44.912Z,1019.86
2019-01-06T00:02:44.894Z,1019.83
2019-01-06T00:03:44.906Z,1019.89
2019-01-06T00:04:44.919Z,1019.86
2019-01-06T00:05:44.862Z,1019.84
2019-01-06T00:06:44.852Z,1019.83
2019-01-06T00:07:44.874Z,1019.88
2019-01-06T00:08:44.878Z,1019.85
2019-01-06T00:09:44.856Z,1019.82
2019-01-06T00:10:44.818Z,1019.87
2019-01-06T00:11:44.830Z,1019.86
2019-01-06T00:12:44.792Z,1019.90
2019-01-06T00:13:44.779Z,1019.92
2019-01-06T00:14:44.806Z,1019.94
2019-01-06T00:15:44.808Z,1019.96
2019-01-06T00:16:44.773Z,1020.02
2019-01-06T00:17:44.762Z,1020.00
2019-01-06T00:18:44.753Z,1020.04
2019-01-06T00:19:44.734Z,1020.06
2019-01-06T00:20:44.729Z,1020.11
2019-01-06T00:21:44.698Z,1020.08
2019-01-06T00:22:44.683Z,1020.10
2019-01-06T00:23:44.687Z,1020.08
2019-01-06T00:24:44.677Z,1020.06
2019-01-06T00:25:44.646Z,1020.15
2019-01-06T00:26:44.651Z,1020.11
2019-01-06T00:27:44.635Z,1020.13
2019-01-06T00:28:44.617Z,1020.13
2019-01-06T00:29:44.625Z,1020.12
2019-01-06T00:30:44.602Z,1020.15
2019-01-06T00:31:44.587Z,1020.17
2019-01-06T00:32:44.589Z,1020.16
2019-01-06T00:33:44.571Z,1020.18
2019-01-06T00:34:44.573Z,1020.18
2019-01-06T00:35:44.593Z,1020.15
2019-01-06T00:36:44.546Z,1020.14
2019-01-06T00:37:44.537Z,1020.15
2019-01-06T00:38:44.511Z,1020.15
2019-01-06T00:39:44.539Z,1020.20
2019-01-06T00:40:44.489Z,1020.17
2019-01-06T00:41:44.478Z,1020.18
2019-01-06T00:42:44.474Z,1020.16
2019-01-06T00:43:44.511Z,1020.15
2019-01-06T00:44:44.479Z,1020.15
2019-01-06T00:45:44.457Z,1020.21
2019-01-06T00:46:44.426Z,1020.17
2019-01-06T00:47:44.421Z,1020.21
2019-01-06T00:48:44.419Z,1020.25
2019-01-06T00:49:44.409Z,1020.22
2019-01-06T00:50:44.410Z,1020.20
2019-01-06T00:51:44.374Z,1020.21
2019-01-06T00:52:44.367Z,1020.22
2019-01-06T00:53:44.350Z,1020.23
2019-01-06T00:54:44.344Z,1020.23
2019-01-06T00:55:44.348Z,1020.23
2019-01-06T00:56:44.346Z,1020.21
2019-01-06T00:57:44.308Z,1020.21
2019-01-06T00:58:44.314Z,1020.20
2019-01-06T00:59:44.293Z,1020.20
2019-01-06T01:00:44.298Z,1020.19
2019-01-06T01:01:44.265Z,1020.21
2019-01-06T01:02:44.262Z,1020.24
2019-01-06T01:03:44.244Z,1020.22
2019-01-06T01:04:44.244Z,1020.25
2019-01-06T01:05:44.248Z,1020.21
2019-01-06T01:06:44.204Z,1020.27
2019-01-06T01:07:44.222Z,1020.26
2019-01-06T01:08:44.194Z,1020.24
2019-01-06T01:09:44.228Z,1020.26
2019-01-06T01:10:44.198Z,1020.25
2019-01-06T01:11:44.167Z,1020.26
2019-01-06T01:12:44.146Z,1020.26
2019-01-06T01:13:44.150Z,1020.25
2019-01-06T01:14:44.130Z,1020.23
2019-01-06T01:15:44.136Z,1020.25
2019-01-06T01:16:44.111Z,1020.27
2019-01-06T01:17:44.144Z,1020.25
2019-01-06T01:18:44.086Z,1020.28
2019-01-06T01:19:44.088Z,1020.27
2019-01-06T01:20:44.099Z,1020.28
2019-01-06T01:21:44.090Z,1020.23
2019-01-06T01:22:44.047Z,1020.25
2019-01-06T01:23:44.028Z,1020.33
2019-01-06T01:24:44.027Z,1020.31
2019-01-06T01:25:44.021Z,1020.28
2019-01-06T01:26:48.220Z,1020.30
2019-01-06T01:27:43.989Z,1020.29
2019-01-06T01:28:44.058Z,1020.26
2019-01-06T01:29:43.955Z,1020.29
2019-01-06T01:30:43.966Z,1020.33
2019-01-06T01:31:43.942Z,1020.34
2019-01-06T01:32:43.928Z,1020.30
2019-01-06T01:33:43.931Z,1020.33
2019-01-06T01:34:43.906Z,1020.33
2019-01-06T01:35:43.952Z,1020.34
2019-01-06T01:36:43.899Z,1020.34
2019-01-06T01:37:43.916Z,1020.34
2019-01-06T01:38:43.867Z,1020.37
2019-01-06T01:39:43.880Z,1020.40
2019-01-06T01:40:43.847Z,1020.38
2019-01-06T01:41:43.868Z,1020.45
2019-01-06T01:42:43.832Z,1020.42
2019-01-06T01:43:43.851Z,1020.45
2019-01-06T01:44:43.842Z,1020.46
2019-01-06T01:45:43.830Z,1020.47
2019-01-06T01:46:43.815Z,1020.49
2019-01-06T01:47:43.804Z,1020.47
2019-01-06T01:48:43.783Z,1020.45
2019-01-06T01:49:43.787Z,1020.47
2019-01-06T01:50:43.741Z,1020.50
2019-01-06T01:51:43.744Z,1020.51
2019-01-06T01:52:43.724Z,1020.49
2019-01-06T01:53:43.720Z,1020.50
2019-01-06T01:54:43.737Z,1020.53
2019-01-06T01:55:43.703Z,1020.54
2019-01-06T01:56:43.711Z,1020.58
2019-01-06T01:57:43.767Z,1020.60
2019-01-06T01:58:43.663Z,1020.58
2019-01-06T01:59:43.656Z,1020.55
2019-01-06T02:00:43.642Z,1020.57
2019-01-06T02:01:43.640Z,1020.61
2019-01-06T02:02:43.611Z,1020.61
2019-01-06T02:03:43.637Z,1020.65
2019-01-06T02:04:43.607Z,1020.60
2019-01-06T02:05:43.584Z,1020.65
2019-01-06T02:06:43.579Z,1020.65
2019-01-06T02:07:43.576Z,1020.68
2019-01-06T02:08:43.569Z,1020.69
2019-01-06T02:09:43.553Z,1020.70
2019-01-06T02:10:43.552Z,1020.70
2019-01-06T02:11:43.559Z,1020.71
2019-01-06T02:12:43.511Z,1020.72
2019-01-06T02:13:43.507Z,1020.72
2019-01-06T02:14:43.491Z,1020.76
2019-01-06T02:15:43.512Z,1020.76
2019-01-06T02:16:43.509Z,1020.80
2019-01-06T02:17:43.489Z,1020.81
2019-01-06T02:18:43.454Z,1020.81
2019-01-06T02:19:43.448Z,1020.86
2019-01-06T02:20:43.452Z,1020.83
2019-01-06T02:21:43.420Z,1020.85
2019-01-06T02:22:43.436Z,1020.83
2019-01-06T02:23:43.421Z,1020.81
2019-01-06T02:24:43.388Z,1020.82
2019-01-06T02:25:43.401Z,1020.82
2019-01-06T02:26:43.366Z,1020.86
2019-01-06T02:27:43.385Z,1020.83
2019-01-06T02:28:43.362Z,1020.79
2019-01-06T02:29:43.345Z,1020.81
2019-01-06T02:30:43.331Z,1020.84
2019-01-06T02:31:43.351Z,1020.85
2019-01-06T02:32:43.348Z,1020.83
2019-01-06T02:33:43.299Z,1020.81
2019-01-06T02:34:43.307Z,1020.83
2019-01-06T02:35:43.270Z,1020.85
2019-01-06T02:36:43.264Z,1020.82
2019-01-06T02:37:43.267Z,1020.84
2019-01-06T02:38:43.254Z,1020.84
2019-01-06T02:39:43.239Z,1020.86
2019-01-06T02:40:43.252Z,1020.78
2019-01-06T02:41:43.222Z,1020.76
2019-01-06T02:42:43.211Z,1020.76
2019-01-06T02:43:43.187Z,1020.72
2019-01-06T02:44:43.189Z,1020.74
2019-01-06T02:45:43.176Z,1020.74
2019-01-06T02:46:43.171Z,1020.74
2019-01-06T02:47:43.180Z,1020.81
2019-01-06T02:48:43.158Z,1020.77
2019-01-06T02:49:43.129Z,1020.81
2019-01-06T02:50:43.107Z,1020.79
2019-01-06T02:51:43.107Z,1020.77
2019-01-06T02:52:43.119Z,1020.80
2019-01-06T02:53:43.100Z,1020.82
2019-01-06T02:54:43.097Z,1020.86
2019-01-06T02:55:43.057Z,1020.88
2019-01-06T02:56:43.053Z,1020.92
2019-01-06T02:57:43.076Z,1020.98
2019-01-06T02:58:43.041Z,1020.98
2019-01-06T02:59:43.027Z,1020.95
2019-01-06T03:00:43.008Z,1020.98
2019-01-06T03:01:43.000Z,1020.94
2019-01-06T03:02:43.016Z,1021.04
2019-01-06T03:03:43.005Z,1021.03
2019-01-06T03:04:42.962Z,1021.00
2019-01-06T03:05:42.970Z,1021.04
2019-01-06T03:06:42.951Z,1021.04
2019-01-06T03:07:42.933Z,1021.05
2019-01-06T03:08:42.962Z,1021.07
2019-01-06T03:09:42.917Z,1021.07
2019-01-06T03:10:42.903Z,1021.11
2019-01-06T03:11:42.911Z,1021.12
2019-01-06T03:12:42.877Z,1021.14
2019-01-06T03:13:42.900Z,1021.11
2019-01-06T03:14:42.860Z,1021.11
2019-01-06T03:15:42.850Z,1021.11
2019-01-06T03:16:42.852Z,1021.14
2019-01-06T03:17:42.835Z,1021.08
2019-01-06T03:18:42.921Z,1021.09
2019-01-06T03:19:42.802Z,1021.06
2019-01-06T03:20:42.800Z,1021.08
2019-01-06T03:21:42.796Z,1021.14
2019-01-06T03:22:42.791Z,1021.09
2019-01-06T03:23:42.796Z,1021.06
2019-01-06T03:24:42.767Z,1021.06
2019-01-06T03:25:42.739Z,1021.04
2019-01-06T17:29:13.057Z,1024.46
2019-01-06T17:30:13.039Z,1024.37
2019-01-06T17:31:13.024Z,1024.39
2019-01-06T17:32:13.069Z,1024.36
2019-01-06T17:33:13.012Z,1024.36
2019-01-06T17:34:13.002Z,1024.34
2019-01-06T17:35:13.009Z,1024.32
2019-01-06T17:36:12.978Z,1024.34
2019-01-06T17:37:12.980Z,1024.40
2019-01-06T17:38:12.951Z,1024.38
2019-01-06T17:39:12.965Z,1024.38
2019-01-06T17:40:12.925Z,1024.40
2019-01-06T17:41:12.919Z,1024.43
2019-01-06T17:42:12.926Z,1024.42
2019-01-06T17:43:12.922Z,1024.44
2019-01-06T17:44:12.885Z,1024.42
2019-01-06T17:45:12.884Z,1024.37
2019-01-06T17:46:13.618Z,1024.36
2019-01-06T17:47:13.746Z,1024.36
2019-01-06T17:48:12.966Z,1024.39
2019-01-06T17:49:12.833Z,1024.37
2019-01-06T17:50:13.608Z,1024.34
2019-01-06T17:51:13.667Z,1024.34
2019-01-06T17:52:12.884Z,1024.32
2019-01-06T17:53:12.789Z,1024.32
2019-01-06T17:54:13.624Z,1024.31
2019-01-06T17:55:12.795Z,1024.35
2019-01-06T17:56:12.789Z,1024.34
2019-01-06T17:57:12.766Z,1024.38
2019-01-06T17:58:12.914Z,1024.33
2019-01-06T17:59:12.900Z,1024.38
2019-01-06T18:00:12.748Z,1024.35
2019-01-06T18:01:12.706Z,1024.40
2019-01-06T18:02:12.730Z,1024.38
2019-01-06T18:03:12.692Z,1024.38
2019-01-06T18:04:12.667Z,1024.37
2019-01-06T18:05:12.725Z,1024.41
2019-01-06T18:06:12.672Z,1024.42
2019-01-06T18:07:12.640Z,1024.42
2019-01-06T18:08:12.648Z,1024.44
2019-01-06T18:09:12.624Z,1024.46
2019-01-06T18:10:12.617Z,1024.49
2019-01-06T18:11:12.608Z,1024.48
2019-01-06T18:12:12.602Z,1024.49
2019-01-06T18:13:12.600Z,1024.47
2019-01-06T18:14:12.602Z,1024.45
2019-01-06T18:15:12.590Z,1024.41
2019-01-06T18:16:12.550Z,1024.43
2019-01-06T18:17:12.565Z,1024.42
2019-01-06T18:18:12.535Z,1024.42
2019-01-06T18:19:12.521Z,1024.40
2019-01-06T18:20:12.501Z,1024.47
2019-01-06T18:21:12.505Z,1024.44
2019-01-06T18:22:12.494Z,1024.44
2019-01-06T18:23:12.533Z,1024.46
2019-01-06T18:24:12.457Z,1024.48
2019-01-06T18:25:12.447Z,1024.43
2019-01-06T18:26:12.448Z,1024.43
2019-01-06T18:27:12.433Z,1024.42
2019-01-06T18:28:12.441Z,1024.40
2019-01-06T18:29:12.440Z,1024.39
2019-01-06T18:30:12.391Z,1024.36
2019-01-06T18:31:12.380Z,1024.34
2019-01-06T18:32:12.362Z,1024.42
2019-01-06T18:33:12.369Z,1024.42
2019-01-06T18:34:12.352Z,1024.40
2019-01-06T18:35:12.350Z,1024.41
2019-01-06T18:36:12.339Z,1024.42
2019-01-06T18:37:12.313Z,1024.39
2019-01-06T18:38:12.321Z,1024.40
2019-01-06T18:39:12.313Z,1024.39
2019-01-06T18:40:12.279Z,1024.40
2019-01-06T18:41:12.281Z,1024.41
2019-01-06T18:42:12.264Z,1024.40
2019-01-06T18:43:12.275Z,1024.42
2019-01-06T18:44:12.257Z,1024.44
2019-01-06T18:45:12.246Z,1024.45
2019-01-06T18:46:12.232Z,1024.44
2019-01-06T18:47:12.237Z,1024.45
2019-01-06T18:48:12.220Z,1024.40
2019-01-06T18:49:12.204Z,1024.42
2019-01-06T18:50:12.181Z,1024.43
2019-01-06T18:51:12.173Z,1024.43
2019-01-06T18:52:12.189Z,1024.40
2019-01-06T18:53:12.151Z,1024.43
2019-01-06T18:54:12.154Z,1024.40
2019-01-06T18:55:12.124Z,1024.41
2019-01-06T18:56:12.127Z,1024.47
2019-01-06T18:57:12.164Z,1024.45
2019-01-06T18:58:12.088Z,1024.45
2019-01-06T18:59:12.101Z,1024.45
2019-01-06T19:00:12.071Z,1024.47
2019-01-06T19:01:12.074Z,1024.47
2019-01-06T19:02:12.063Z,1024.46
2019-01-06T19:03:12.047Z,1024.48
2019-01-06T19:04:12.066Z,1024.47
2019-01-06T19:05:12.185Z,1024.45
2019-01-06T19:06:12.012Z,1024.42
2019-01-06T19:07:12.007Z,1024.45
2019-01-06T19:08:11.986Z,1024.46
2019-01-06T19:09:11.988Z,1024.49
2019-01-06T19:10:11.975Z,1024.51
2019-01-06T19:11:11.956Z,1024.51
2019-01-06T19:12:11.951Z,1024.50
2019-01-06T19:13:11.928Z,1024.48
2019-01-06T19:14:11.942Z,1024.48
2019-01-06T19:15:11.907Z,1024.52
2019-01-06T19:16:11.900Z,1024.57
2019-01-06T19:17:11.900Z,1024.48
2019-01-06T19:18:11.887Z,1024.48
2019-01-06T19:19:11.898Z,1024.52
2019-01-06T19:20:11.884Z,1024.50
2019-01-06T19:21:11.873Z,1024.48
2019-01-06T19:22:11.855Z,1024.49
2019-01-06T19:23:17.757Z,1024.50
2019-01-06T19:24:12.839Z,1024.51
2019-01-06T19:25:11.812Z,1024.52
2019-01-06T19:26:11.822Z,1024.52
2019-01-06T19:27:11.778Z,1024.53
2019-01-06T19:28:11.771Z,1024.53
2019-01-06T19:29:11.794Z,1024.53
2019-01-06T19:30:11.758Z,1024.51
2019-01-06T19:31:11.742Z,1024.51
2019-01-06T19:32:11.747Z,1024.59
2019-01-06T19:33:11.716Z,1024.56
2019-01-06T19:34:11.724Z,1024.57
2019-01-06T19:35:11.730Z,1024.56
2019-01-06T19:36:11.687Z,1024.57
2019-01-06T19:37:11.706Z,1024.55
2019-01-06T19:38:11.667Z,1024.60
2019-01-06T19:39:11.692Z,1024.59
2019-01-06T19:40:11.661Z,1024.60
2019-01-06T19:41:11.658Z,1024.62
2019-01-06T19:42:11.620Z,1024.67
2019-01-06T19:43:11.607Z,1024.64
2019-01-06T19:44:11.635Z,1024.71
2019-01-06T19:45:11.605Z,1024.69
2019-01-06T19:46:11.593Z,1024.72
2019-01-06T19:47:11.602Z,1024.68
2019-01-06T19:48:11.577Z,1024.65
2019-01-06T19:49:11.571Z,1024.67
2019-01-06T19:50:11.573Z,1024.66
2019-01-06T19:51:11.520Z,1024.67
2019-01-06T19:52:13.100Z,1024.68
2019-01-06T19:53:11.533Z,1024.64
2019-01-06T19:54:11.505Z,1024.68
2019-01-06T19:55:11.568Z,1024.65
2019-01-06T19:56:11.470Z,1024.69
2019-01-06T19:57:11.462Z,1024.61
2019-01-06T19:58:11.461Z,1024.59
2019-01-06T19:59:11.437Z,1024.58
2019-01-06T20:00:11.479Z,1024.59
2019-01-06T20:01:11.419Z,1024.51
2019-01-06T20:02:11.401Z,1024.54
2019-01-06T20:03:11.403Z,1024.52
2019-01-06T20:04:11.399Z,1024.53
2019-01-06T20:05:11.403Z,1024.50
2019-01-06T20:06:11.377Z,1024.51
2019-01-06T20:07:11.367Z,1024.47
2019-01-06T20:08:11.348Z,1024.51
2019-01-06T20:09:11.347Z,1024.54
2019-01-06T20:10:13.141Z,1024.51
2019-01-06T20:11:11.347Z,1024.49
2019-01-06T20:12:13.111Z,1024.49
2019-01-06T20:13:11.289Z,1024.52
2019-01-06T20:14:11.294Z,1024.52
2019-01-06T20:15:11.275Z,1024.51
2019-01-06T20:16:12.309Z,1024.48
2019-01-06T20:17:11.585Z,1024.50
2019-01-06T20:18:11.234Z,1024.50
2019-01-06T20:19:11.229Z,1024.52
2019-01-06T20:20:11.217Z,1024.50
2019-01-06T20:21:11.240Z,1024.46
2019-01-06T20:22:11.226Z,1024.50
2019-01-06T20:23:11.189Z,1024.46
2019-01-06T20:24:11.164Z,1024.49
2019-01-06T20:25:11.241Z,1024.42
2019-01-06T20:26:11.183Z,1024.42
2019-01-06T20:27:11.211Z,1024.45
2019-01-06T20:28:11.148Z,1024.38
2019-01-06T20:29:11.128Z,1024.41
2019-01-06T20:30:11.108Z,1024.36
2019-01-06T20:31:11.126Z,1024.36
2019-01-06T20:32:11.112Z,1024.39
2019-01-06T20:33:11.086Z,1024.38
2019-01-06T20:34:11.072Z,1024.40
2019-01-06T20:35:11.056Z,1024.45
2019-01-06T20:36:11.400Z,1024.42
2019-01-06T20:37:11.085Z,1024.40
2019-01-06T20:38:11.856Z,1024.39
2019-01-06T20:39:11.007Z,1024.38
2019-01-06T20:40:11.020Z,1024.37
2019-01-06T20:41:11.004Z,1024.38
2019-01-06T20:42:11.046Z,1024.42
2019-01-06T20:43:10.988Z,1024.41
2019-01-06T20:44:11.002Z,1024.41
2019-01-06T20:45:10.946Z,1024.33
2019-01-06T20:46:10.952Z,1024.37
2019-01-06T20:47:10.922Z,1024.36
2019-01-06T20:48:10.918Z,1024.38
2019-01-06T20:49:10.938Z,1024.34
2019-01-06T20:50:10.918Z,1024.35
2019-01-06T20:51:10.921Z,1024.36
2019-01-06T20:52:10.868Z,1024.31
2019-01-06T20:53:10.863Z,1024.30
2019-01-06T20:54:10.853Z,1024.35
2019-01-06T20:55:10.857Z,1024.32
2019-01-06T20:56:10.859Z,1024.32
2019-01-06T20:57:10.811Z,1024.34
2019-01-06T20:58:11.024Z,1024.34
2019-01-06T20:59:10.805Z,1024.34
2019-01-06T21:00:10.847Z,1024.36
2019-01-06T21:01:11.289Z,1024.36
2019-01-06T21:02:11.616Z,1024.42
2019-01-06T21:03:10.809Z,1024.40
2019-01-06T21:04:10.754Z,1024.39
2019-01-06T21:05:10.738Z,1024.40
2019-01-06T21:06:11.084Z,1024.39
2019-01-06T21:07:10.754Z,1024.41
2019-01-06T21:08:10.728Z,1024.41
2019-01-06T21:09:10.748Z,1024.41
2019-01-06T21:10:10.740Z,1024.39
2019-01-06T21:11:10.673Z,1024.38
2019-01-06T21:12:10.781Z,1024.42
2019-01-06T21:13:10.680Z,1024.45
2019-01-06T21:14:11.211Z,1024.46
2019-01-06T21:15:10.693Z,1024.48
2019-01-06T21:16:10.643Z,1024.43
2019-01-06T21:17:10.635Z,1024.43
2019-01-06T21:18:10.843Z,1024.44
2019-01-06T21:19:10.582Z,1024.41
2019-01-06T21:20:10.783Z,1024.43
2019-01-06T21:21:10.569Z,1024.48
2019-01-06T21:22:10.578Z,1024.47
2019-01-06T21:23:10.536Z,1024.48
2019-01-06T21:24:10.546Z,1024.45
2019-01-06T21:25:10.583Z,1024.47
2019-01-06T21:26:10.512Z,1024.49
2019-01-06T21:27:10.519Z,1024.51
2019-01-06T21:28:10.533Z,1024.50
2019-01-06T21:29:10.505Z,1024.49
2019-01-06T21:30:10.879Z,1024.50
2019-01-06T21:31:10.488Z,1024.51
2019-01-06T21:32:10.494Z,1024.49
2019-01-06T21:33:10.453Z,1024.49
2019-01-06T21:34:10.436Z,1024.43
2019-01-06T21:35:10.479Z,1024.44
2019-01-06T21:36:10.651Z,1024.46
2019-01-06T21:37:10.428Z,1024.44
2019-01-06T21:38:10.415Z,1024.44
2019-01-06T21:39:10.379Z,1024.45
2019-01-06T21:40:10.446Z,1024.52
2019-01-06T21:41:10.349Z,1024.50
2019-01-06T21:42:11.118Z,1024.46
2019-01-06T21:43:10.440Z,1024.48
2019-01-06T21:44:10.366Z,1024.49
2019-01-06T21:45:10.361Z,1024.48
2019-01-06T21:46:11.806Z,1024.50
2019-01-06T21:47:10.312Z,1024.48
2019-01-06T21:48:10.325Z,1024.45
2019-01-06T21:49:10.273Z,1024.43
2019-01-06T21:50:10.269Z,1024.48
2019-01-06T21:51:10.244Z,1024.42
2019-01-06T21:52:10.231Z,1024.44
2019-01-06T21:53:11.079Z,1024.49
2019-01-06T21:54:10.253Z,1024.43
2019-01-06T21:55:10.226Z,1024.41
2019-01-06T21:56:10.197Z,1024.38
2019-01-06T21:57:10.211Z,1024.45
2019-01-06T21:58:11.114Z,1024.49
2019-01-06T21:59:10.154Z,1024.49
2019-01-06T22:00:10.622Z,1024.41
2019-01-06T22:01:10.646Z,1024.47
2019-01-06T22:02:10.147Z,1024.52
2019-01-06T22:03:10.163Z,1024.49
2019-01-06T22:04:10.976Z,1024.48
2019-01-06T22:05:10.101Z,1024.47
2019-01-06T22:06:10.127Z,1024.49
2019-01-06T22:07:10.111Z,1024.49
2019-01-06T22:08:10.434Z,1024.48
2019-01-06T22:09:10.109Z,1024.44
2019-01-06T22:10:10.240Z,1024.46
2019-01-06T22:11:10.180Z,1024.47
2019-01-06T22:12:10.022Z,1024.48
2019-01-06T22:13:10.052Z,1024.45
2019-01-06T22:14:10.034Z,1024.46
2019-01-06T22:15:10.139Z,1024.45
2019-01-06T22:16:10.025Z,1024.47
2019-01-06T22:17:09.992Z,1024.47
2019-01-06T22:18:10.093Z,1024.47
2019-01-06T22:19:10.113Z,1024.44
2019-01-06T22:20:09.948Z,1024.47
2019-01-06T22:21:09.905Z,1024.43
2019-01-06T22:22:09.913Z,1024.47
2019-01-06T22:23:09.926Z,1024.47
2019-01-06T22:24:09.911Z,1024.41
2019-01-06T22:25:09.910Z,1024.41
2019-01-06T22:26:09.859Z,1024.42
2019-01-06T22:27:09.851Z,1024.39
2019-01-06T22:28:09.861Z,1024.38
2019-01-06T22:29:10.263Z,1024.43
2019-01-06T22:30:09.829Z,1024.43
2019-01-06T22:31:09.850Z,1024.40
2019-01-06T22:32:10.621Z,1024.36
2019-01-06T22:33:09.808Z,1024.39
2019-01-06T22:34:09.819Z,1024.39
2019-01-06T22:35:09.937Z,1024.35
2019-01-06T22:36:09.763Z,1024.31
2019-01-06T22:37:09.752Z,1024.36
2019-01-06T22:38:09.731Z,1024.34
2019-01-06T22:39:09.749Z,1024.39
2019-01-06T22:40:09.713Z,1024.35
2019-01-06T22:41:09.707Z,1024.37
2019-01-06T22:42:09.685Z,1024.38
2019-01-06T22:43:09.780Z,1024.34
2019-01-06T22:44:09.720Z,1024.36
2019-01-06T22:45:09.655Z,1024.38
2019-01-06T22:46:09.657Z,1024.36
2019-01-06T22:47:09.666Z,1024.40
2019-01-06T22:48:09.695Z,1024.39
2019-01-06T22:49:09.637Z,1024.40
2019-01-06T22:50:09.614Z,1024.38
2019-01-06T22:51:09.608Z,1024.38
2019-01-06T22:52:09.588Z,1024.38
2019-01-06T22:53:09.572Z,1024.37
2019-01-06T22:54:09.598Z,1024.37
2019-01-06T22:55:09.597Z,1024.34
2019-01-06T22:56:09.552Z,1024.27
2019-01-06T22:57:09.537Z,1024.28
2019-01-06T22:58:09.539Z,1024.27
2019-01-06T22:59:09.527Z,1024.33
2019-01-06T23:00:09.548Z,1024.33
2019-01-06T23:01:09.494Z,1024.33
2019-01-06T23:02:09.486Z,1024.31
2019-01-06T23:03:09.466Z,1024.31
2019-01-06T23:04:09.504Z,1024.34
2019-01-06T23:05:09.495Z,1024.36
2019-01-06T23:06:09.464Z,1024.35
2019-01-06T23:07:09.423Z,1024.39
2019-01-06T23:08:09.432Z,1024.35
2019-01-06T23:09:09.425Z,1024.36
2019-01-06T23:10:09.414Z,1024.31
2019-01-06T23:11:09.374Z,1024.33
2019-01-06T23:12:09.421Z,1024.37
2019-01-06T23:13:09.401Z,1024.40
2019-01-06T23:14:09.352Z,1024.37
2019-01-06T23:15:09.496Z,1024.44
2019-01-06T23:16:09.331Z,1024.41
2019-01-06T23:17:09.322Z,1024.45
2019-01-06T23:18:09.320Z,1024.45
2019-01-06T23:19:09.300Z,1024.40
2019-01-06T23:20:09.314Z,1024.37
2019-01-06T23:21:09.283Z,1024.41
2019-01-06T23:22:11.126Z,1024.37
2019-01-06T23:23:09.267Z,1024.32
2019-01-06T23:24:09.308Z,1024.28
2019-01-06T23:25:09.274Z,1024.32
2019-01-06T23:26:09.226Z,1024.32
2019-01-06T23:27:09.236Z,1024.31
2019-01-06T23:28:09.207Z,1024.26
2019-01-06T23:29:09.199Z,1024.30
2019-01-06T23:30:09.207Z,1024.30
2019-01-06T23:31:09.183Z,1024.27
2019-01-06T23:32:09.199Z,1024.26
2019-01-06T23:33:10.885Z,1024.24
2019-01-06T23:34:09.136Z,1024.22
2019-01-06T23:35:09.176Z,1024.21
2019-01-06T23:36:09.175Z,1024.21
2019-01-06T23:37:09.133Z,1024.19
2019-01-06T23:38:09.137Z,1024.16
2019-01-06T23:39:09.139Z,1024.16
2019-01-06T23:40:09.312Z,1024.16
2019-01-06T23:41:09.074Z,1024.17
2019-01-06T23:42:09.073Z,1024.19
2019-01-06T23:43:09.064Z,1024.19
2019-01-06T23:44:09.039Z,1024.15
2019-01-06T23:45:09.077Z,1024.18
2019-01-06T23:46:09.025Z,1024.16
2019-01-06T23:47:09.042Z,1024.11
2019-01-06T23:48:08.995Z,1024.13
2019-01-06T23:49:09.016Z,1024.19
2019-01-06T23:50:09.188Z,1024.19
2019-01-06T23:51:09.034Z,1024.26
2019-01-06T23:52:09.012Z,1024.27
2019-01-06T23:53:09.014Z,1024.26
2019-01-06T23:54:08.970Z,1024.23
2019-01-06T23:55:08.929Z,1024.25
2019-01-06T23:56:08.941Z,1024.27
2019-01-06T23:57:08.897Z,1024.26
2019-01-06T23:58:09.103Z,1024.28
2019-01-06T23:59:08.975Z,1024.30
